sensor_id;sensor_type;location;lat;lon;timestamp;P1;durP1;ratioP1;P2;durP2;ratioP2
11328;SDS011;5719;42.714;23.732;2023-06-22T00:00:00;8.90;;;7.60;;
11328;SDS011;5719;42.714;23.732;2023-06-22T00:02:34;8.15;;;7.30;;
11328;SDS011;5719;42.714;23.732;2023-06-22T00:05:01;10.15;;;7.50;;
11328;SDS011;5719;42.714;23.732;2023-06-22T00:07:28;9.27;;;7.20;;
11328;SDS011;5719;42.714;23.732;2023-06-22T00:09:55;8.98;;;7.50;;
11328;SDS011;5719;42.714;23.732;2023-06-22T00:12:22;8.90;;;7.30;;
11328;SDS011;5719;42.714;23.732;2023-06-22T00:14:49;9.27;;;7.55;;
11328;SDS011;5719;42.714;23.732;2023-06-22T00:17:16;8.52;;;7.60;;
11328;SDS011;5719;42.714;23.732;2023-06-22T00:19:46;9.77;;;7.80;;
11328;SDS011;5719;42.714;23.732;2023-06-22T00:22:18;13.52;;;8.40;;
11328;SDS011;5719;42.714;23.732;2023-06-22T00:24:46;10.82;;;7.72;;
11328;SDS011;5719;42.714;23.732;2023-06-22T00:27:13;8.80;;;7.97;;
11328;SDS011;5719;42.714;23.732;2023-06-22T00:29:40;10.35;;;8.30;;
11328;SDS011;5719;42.714;23.732;2023-06-22T00:32:07;9.57;;;8.15;;
11328;SDS011;5719;42.714;23.732;2023-06-22T00:34:34;9.77;;;7.68;;
11328;SDS011;5719;42.714;23.732;2023-06-22T00:37:02;8.32;;;7.53;;
11328;SDS011;5719;42.714;23.732;2023-06-22T00:39:30;9.27;;;7.90;;
11328;SDS011;5719;42.714;23.732;2023-06-22T00:41:58;8.30;;;7.50;;
11328;SDS011;5719;42.714;23.732;2023-06-22T00:44:25;8.75;;;7.40;;
11328;SDS011;5719;42.714;23.732;2023-06-22T00:46:52;8.35;;;7.22;;
11328;SDS011;5719;42.714;23.732;2023-06-22T00:49:20;11.52;;;8.13;;
11328;SDS011;5719;42.714;23.732;2023-06-22T00:51:46;12.65;;;7.65;;
11328;SDS011;5719;42.714;23.732;2023-06-22T00:54:15;10.10;;;7.72;;
11328;SDS011;5719;42.714;23.732;2023-06-22T00:56:43;10.85;;;7.60;;
11328;SDS011;5719;42.714;23.732;2023-06-22T00:59:10;12.40;;;8.20;;
11328;SDS011;5719;42.714;23.732;2023-06-22T01:01:38;9.13;;;8.10;;
11328;SDS011;5719;42.714;23.732;2023-06-22T01:04:06;11.70;;;8.57;;
11328;SDS011;5719;42.714;23.732;2023-06-22T01:06:34;16.98;;;8.95;;
11328;SDS011;5719;42.714;23.732;2023-06-22T01:09:10;13.23;;;8.32;;
11328;SDS011;5719;42.714;23.732;2023-06-22T01:11:44;9.60;;;8.50;;
11328;SDS011;5719;42.714;23.732;2023-06-22T01:14:15;12.55;;;8.45;;
11328;SDS011;5719;42.714;23.732;2023-06-22T01:16:48;13.32;;;8.38;;
11328;SDS011;5719;42.714;23.732;2023-06-22T01:19:33;16.10;;;8.35;;
11328;SDS011;5719;42.714;23.732;2023-06-22T01:22:04;11.80;;;7.60;;
11328;SDS011;5719;42.714;23.732;2023-06-22T01:24:40;10.10;;;8.02;;
11328;SDS011;5719;42.714;23.732;2023-06-22T01:27:18;9.82;;;8.15;;
11328;SDS011;5719;42.714;23.732;2023-06-22T01:29:56;10.93;;;8.15;;
11328;SDS011;5719;42.714;23.732;2023-06-22T01:32:26;12.95;;;7.68;;
11328;SDS011;5719;42.714;23.732;2023-06-22T01:34:54;10.27;;;8.77;;
11328;SDS011;5719;42.714;23.732;2023-06-22T01:37:22;10.95;;;8.40;;
11328;SDS011;5719;42.714;23.732;2023-06-22T01:39:49;9.73;;;8.13;;
11328;SDS011;5719;42.714;23.732;2023-06-22T01:42:17;10.98;;;8.43;;
11328;SDS011;5719;42.714;23.732;2023-06-22T01:44:44;9.02;;;8.13;;
11328;SDS011;5719;42.714;23.732;2023-06-22T01:47:13;14.05;;;8.13;;
11328;SDS011;5719;42.714;23.732;2023-06-22T01:49:40;11.13;;;8.57;;
11328;SDS011;5719;42.714;23.732;2023-06-22T01:52:07;9.38;;;8.30;;
11328;SDS011;5719;42.714;23.732;2023-06-22T01:54:34;14.25;;;7.93;;
11328;SDS011;5719;42.714;23.732;2023-06-22T01:57:01;11.40;;;8.98;;
11328;SDS011;5719;42.714;23.732;2023-06-22T01:59:29;9.30;;;7.93;;
11328;SDS011;5719;42.714;23.732;2023-06-22T02:02:03;11.00;;;8.57;;
11328;SDS011;5719;42.714;23.732;2023-06-22T02:04:34;17.67;;;10.68;;
11328;SDS011;5719;42.714;23.732;2023-06-22T02:07:05;9.00;;;8.10;;
11328;SDS011;5719;42.714;23.732;2023-06-22T02:09:37;16.05;;;8.70;;
11328;SDS011;5719;42.714;23.732;2023-06-22T02:12:08;17.90;;;9.45;;
11328;SDS011;5719;42.714;23.732;2023-06-22T02:14:37;10.35;;;8.40;;
11328;SDS011;5719;42.714;23.732;2023-06-22T02:17:05;12.73;;;8.70;;
11328;SDS011;5719;42.714;23.732;2023-06-22T02:19:37;25.38;;;9.63;;
11328;SDS011;5719;42.714;23.732;2023-06-22T02:22:04;14.73;;;8.82;;
11328;SDS011;5719;42.714;23.732;2023-06-22T02:24:31;11.25;;;8.77;;
11328;SDS011;5719;42.714;23.732;2023-06-22T02:26:58;9.95;;;8.25;;
11328;SDS011;5719;42.714;23.732;2023-06-22T02:29:26;15.32;;;9.20;;
11328;SDS011;5719;42.714;23.732;2023-06-22T02:31:53;13.48;;;9.30;;
11328;SDS011;5719;42.714;23.732;2023-06-22T02:34:20;19.98;;;9.88;;
11328;SDS011;5719;42.714;23.732;2023-06-22T02:36:49;25.30;;;10.23;;
11328;SDS011;5719;42.714;23.732;2023-06-22T02:39:18;14.25;;;10.30;;
11328;SDS011;5719;42.714;23.732;2023-06-22T02:41:47;15.85;;;9.63;;
11328;SDS011;5719;42.714;23.732;2023-06-22T02:44:14;16.35;;;9.98;;
11328;SDS011;5719;42.714;23.732;2023-06-22T02:46:41;13.73;;;8.98;;
11328;SDS011;5719;42.714;23.732;2023-06-22T02:49:08;14.20;;;8.90;;
11328;SDS011;5719;42.714;23.732;2023-06-22T02:51:37;15.32;;;9.70;;
11328;SDS011;5719;42.714;23.732;2023-06-22T02:54:06;12.75;;;10.00;;
11328;SDS011;5719;42.714;23.732;2023-06-22T02:56:33;12.32;;;9.88;;
11328;SDS011;5719;42.714;23.732;2023-06-22T02:59:01;12.38;;;10.35;;
11328;SDS011;5719;42.714;23.732;2023-06-22T03:01:29;15.18;;;10.25;;
11328;SDS011;5719;42.714;23.732;2023-06-22T03:04:02;10.90;;;9.80;;
11328;SDS011;5719;42.714;23.732;2023-06-22T03:06:29;12.75;;;9.68;;
11328;SDS011;5719;42.714;23.732;2023-06-22T03:08:58;11.05;;;9.07;;
11328;SDS011;5719;42.714;23.732;2023-06-22T03:11:28;14.02;;;9.35;;
11328;SDS011;5719;42.714;23.732;2023-06-22T03:13:55;11.32;;;8.93;;
11328;SDS011;5719;42.714;23.732;2023-06-22T03:16:21;12.27;;;9.70;;
11328;SDS011;5719;42.714;23.732;2023-06-22T03:18:48;11.88;;;8.75;;
11328;SDS011;5719;42.714;23.732;2023-06-22T03:21:15;37.15;;;10.00;;
11328;SDS011;5719;42.714;23.732;2023-06-22T03:23:42;16.52;;;8.73;;
11328;SDS011;5719;42.714;23.732;2023-06-22T03:26:09;21.27;;;8.90;;
11328;SDS011;5719;42.714;23.732;2023-06-22T03:28:38;9.57;;;8.15;;
11328;SDS011;5719;42.714;23.732;2023-06-22T03:31:05;10.50;;;9.40;;
11328;SDS011;5719;42.714;23.732;2023-06-22T03:33:32;11.48;;;9.05;;
11328;SDS011;5719;42.714;23.732;2023-06-22T03:35:59;14.10;;;10.00;;
11328;SDS011;5719;42.714;23.732;2023-06-22T03:38:26;17.17;;;9.45;;
11328;SDS011;5719;42.714;23.732;2023-06-22T03:40:53;11.20;;;9.35;;
11328;SDS011;5719;42.714;23.732;2023-06-22T03:43:20;18.20;;;9.95;;
11328;SDS011;5719;42.714;23.732;2023-06-22T03:45:48;14.10;;;9.57;;
11328;SDS011;5719;42.714;23.732;2023-06-22T03:48:15;12.65;;;9.32;;
11328;SDS011;5719;42.714;23.732;2023-06-22T03:50:42;14.82;;;9.93;;
11328;SDS011;5719;42.714;23.732;2023-06-22T03:53:09;16.75;;;10.05;;
11328;SDS011;5719;42.714;23.732;2023-06-22T03:55:40;15.80;;;10.30;;
11328;SDS011;5719;42.714;23.732;2023-06-22T03:58:14;12.27;;;9.68;;
11328;SDS011;5719;42.714;23.732;2023-06-22T04:00:40;11.82;;;9.85;;
11328;SDS011;5719;42.714;23.732;2023-06-22T04:03:09;11.27;;;9.93;;
11328;SDS011;5719;42.714;23.732;2023-06-22T04:05:38;12.75;;;10.10;;
11328;SDS011;5719;42.714;23.732;2023-06-22T04:08:04;19.05;;;11.18;;
11328;SDS011;5719;42.714;23.732;2023-06-22T04:10:31;15.02;;;11.45;;
11328;SDS011;5719;42.714;23.732;2023-06-22T04:12:59;13.95;;;10.77;;
11328;SDS011;5719;42.714;23.732;2023-06-22T04:15:26;18.83;;;10.13;;
11328;SDS011;5719;42.714;23.732;2023-06-22T04:17:54;14.35;;;9.02;;
11328;SDS011;5719;42.714;23.732;2023-06-22T04:20:24;11.90;;;8.95;;
11328;SDS011;5719;42.714;23.732;2023-06-22T04:22:52;17.38;;;10.68;;
11328;SDS011;5719;42.714;23.732;2023-06-22T04:25:19;22.77;;;10.52;;
11328;SDS011;5719;42.714;23.732;2023-06-22T04:27:46;18.08;;;10.23;;
11328;SDS011;5719;42.714;23.732;2023-06-22T04:30:14;17.02;;;9.50;;
11328;SDS011;5719;42.714;23.732;2023-06-22T04:32:42;14.68;;;10.20;;
11328;SDS011;5719;42.714;23.732;2023-06-22T04:35:09;16.17;;;9.70;;
11328;SDS011;5719;42.714;23.732;2023-06-22T04:37:38;17.05;;;10.55;;
11328;SDS011;5719;42.714;23.732;2023-06-22T04:40:05;25.33;;;10.02;;
11328;SDS011;5719;42.714;23.732;2023-06-22T04:42:34;32.22;;;11.45;;
11328;SDS011;5719;42.714;23.732;2023-06-22T04:45:01;14.27;;;10.68;;
11328;SDS011;5719;42.714;23.732;2023-06-22T04:47:29;16.20;;;10.65;;
11328;SDS011;5719;42.714;23.732;2023-06-22T04:49:56;13.10;;;10.88;;
11328;SDS011;5719;42.714;23.732;2023-06-22T04:52:23;17.73;;;11.73;;
11328;SDS011;5719;42.714;23.732;2023-06-22T04:54:51;18.80;;;11.10;;
11328;SDS011;5719;42.714;23.732;2023-06-22T04:57:21;14.75;;;10.90;;
11328;SDS011;5719;42.714;23.732;2023-06-22T04:59:57;22.58;;;10.95;;
11328;SDS011;5719;42.714;23.732;2023-06-22T05:02:39;15.23;;;10.63;;
11328;SDS011;5719;42.714;23.732;2023-06-22T05:05:07;13.30;;;10.82;;
11328;SDS011;5719;42.714;23.732;2023-06-22T05:07:39;14.65;;;10.98;;
11328;SDS011;5719;42.714;23.732;2023-06-22T05:10:09;19.15;;;10.95;;
11328;SDS011;5719;42.714;23.732;2023-06-22T05:12:37;15.80;;;11.10;;
11328;SDS011;5719;42.714;23.732;2023-06-22T05:15:05;18.95;;;11.75;;
11328;SDS011;5719;42.714;23.732;2023-06-22T05:17:33;14.30;;;11.02;;
11328;SDS011;5719;42.714;23.732;2023-06-22T05:20:00;12.82;;;10.70;;
11328;SDS011;5719;42.714;23.732;2023-06-22T05:22:28;20.40;;;10.23;;
11328;SDS011;5719;42.714;23.732;2023-06-22T05:24:55;15.27;;;10.65;;
11328;SDS011;5719;42.714;23.732;2023-06-22T05:27:23;12.35;;;9.45;;
11328;SDS011;5719;42.714;23.732;2023-06-22T05:29:50;11.52;;;8.45;;
11328;SDS011;5719;42.714;23.732;2023-06-22T05:32:17;9.70;;;8.70;;
11328;SDS011;5719;42.714;23.732;2023-06-22T05:34:44;9.68;;;8.55;;
11328;SDS011;5719;42.714;23.732;2023-06-22T05:37:11;11.65;;;8.25;;
11328;SDS011;5719;42.714;23.732;2023-06-22T05:39:38;13.00;;;8.40;;
11328;SDS011;5719;42.714;23.732;2023-06-22T05:42:05;12.00;;;8.50;;
11328;SDS011;5719;42.714;23.732;2023-06-22T05:44:36;9.15;;;8.23;;
11328;SDS011;5719;42.714;23.732;2023-06-22T05:47:04;9.73;;;8.68;;
11328;SDS011;5719;42.714;23.732;2023-06-22T05:49:31;9.57;;;8.57;;
11328;SDS011;5719;42.714;23.732;2023-06-22T05:51:58;12.13;;;8.63;;
11328;SDS011;5719;42.714;23.732;2023-06-22T05:54:27;13.20;;;8.57;;
11328;SDS011;5719;42.714;23.732;2023-06-22T05:56:54;9.27;;;8.27;;
11328;SDS011;5719;42.714;23.732;2023-06-22T05:59:21;10.20;;;8.60;;
11328;SDS011;5719;42.714;23.732;2023-06-22T06:01:49;10.75;;;8.93;;
11328;SDS011;5719;42.714;23.732;2023-06-22T06:04:16;10.05;;;8.55;;
11328;SDS011;5719;42.714;23.732;2023-06-22T06:06:43;11.02;;;8.52;;
11328;SDS011;5719;42.714;23.732;2023-06-22T06:09:12;11.70;;;9.70;;
11328;SDS011;5719;42.714;23.732;2023-06-22T06:11:39;11.35;;;9.20;;
11328;SDS011;5719;42.714;23.732;2023-06-22T06:14:06;11.63;;;8.65;;
11328;SDS011;5719;42.714;23.732;2023-06-22T06:16:33;9.30;;;8.40;;
11328;SDS011;5719;42.714;23.732;2023-06-22T06:19:01;13.10;;;9.23;;
11328;SDS011;5719;42.714;23.732;2023-06-22T06:21:28;11.90;;;8.48;;
11328;SDS011;5719;42.714;23.732;2023-06-22T06:23:55;10.48;;;8.10;;
11328;SDS011;5719;42.714;23.732;2023-06-22T06:26:22;10.88;;;7.93;;
11328;SDS011;5719;42.714;23.732;2023-06-22T06:28:53;9.10;;;7.88;;
11328;SDS011;5719;42.714;23.732;2023-06-22T06:31:20;11.60;;;8.07;;
11328;SDS011;5719;42.714;23.732;2023-06-22T06:33:48;11.52;;;7.43;;
11328;SDS011;5719;42.714;23.732;2023-06-22T06:36:16;8.18;;;7.30;;
11328;SDS011;5719;42.714;23.732;2023-06-22T06:38:43;8.63;;;7.40;;
11328;SDS011;5719;42.714;23.732;2023-06-22T06:41:12;12.90;;;7.10;;
11328;SDS011;5719;42.714;23.732;2023-06-22T06:43:39;8.88;;;7.55;;
11328;SDS011;5719;42.714;23.732;2023-06-22T06:46:07;14.80;;;7.88;;
11328;SDS011;5719;42.714;23.732;2023-06-22T06:48:34;10.25;;;8.20;;
11328;SDS011;5719;42.714;23.732;2023-06-22T06:51:01;9.45;;;8.52;;
11328;SDS011;5719;42.714;23.732;2023-06-22T06:53:30;10.95;;;8.63;;
11328;SDS011;5719;42.714;23.732;2023-06-22T06:55:56;8.38;;;7.47;;
11328;SDS011;5719;42.714;23.732;2023-06-22T06:58:23;9.30;;;8.40;;
11328;SDS011;5719;42.714;23.732;2023-06-22T07:00:50;11.38;;;8.35;;
11328;SDS011;5719;42.714;23.732;2023-06-22T07:03:17;13.82;;;8.32;;
11328;SDS011;5719;42.714;23.732;2023-06-22T07:05:46;10.77;;;8.90;;
11328;SDS011;5719;42.714;23.732;2023-06-22T07:08:13;9.82;;;8.38;;
11328;SDS011;5719;42.714;23.732;2023-06-22T07:10:41;10.90;;;8.25;;
11328;SDS011;5719;42.714;23.732;2023-06-22T07:13:08;8.50;;;7.50;;
11328;SDS011;5719;42.714;23.732;2023-06-22T07:15:35;12.55;;;8.48;;
11328;SDS011;5719;42.714;23.732;2023-06-22T07:18:02;11.73;;;8.18;;
11328;SDS011;5719;42.714;23.732;2023-06-22T07:20:29;10.70;;;8.40;;
11328;SDS011;5719;42.714;23.732;2023-06-22T07:22:56;10.25;;;8.10;;
11328;SDS011;5719;42.714;23.732;2023-06-22T07:25:23;11.00;;;9.00;;
11328;SDS011;5719;42.714;23.732;2023-06-22T07:27:58;11.48;;;7.82;;
11328;SDS011;5719;42.714;23.732;2023-06-22T07:30:27;12.60;;;8.00;;
11328;SDS011;5719;42.714;23.732;2023-06-22T07:32:54;9.80;;;8.65;;
11328;SDS011;5719;42.714;23.732;2023-06-22T07:35:21;10.90;;;8.35;;
11328;SDS011;5719;42.714;23.732;2023-06-22T07:37:48;11.32;;;8.30;;
11328;SDS011;5719;42.714;23.732;2023-06-22T07:40:15;8.68;;;7.57;;
11328;SDS011;5719;42.714;23.732;2023-06-22T07:42:42;11.07;;;8.25;;
11328;SDS011;5719;42.714;23.732;2023-06-22T07:45:11;13.60;;;8.13;;
11328;SDS011;5719;42.714;23.732;2023-06-22T07:47:38;9.77;;;8.40;;
11328;SDS011;5719;42.714;23.732;2023-06-22T07:50:05;11.02;;;8.05;;
11328;SDS011;5719;42.714;23.732;2023-06-22T07:52:33;10.70;;;8.43;;
11328;SDS011;5719;42.714;23.732;2023-06-22T07:55:00;10.38;;;8.30;;
11328;SDS011;5719;42.714;23.732;2023-06-22T07:57:27;11.50;;;8.40;;
11328;SDS011;5719;42.714;23.732;2023-06-22T07:59:58;12.13;;;8.60;;
11328;SDS011;5719;42.714;23.732;2023-06-22T08:02:27;13.50;;;9.05;;
11328;SDS011;5719;42.714;23.732;2023-06-22T08:04:54;11.05;;;8.40;;
11328;SDS011;5719;42.714;23.732;2023-06-22T08:07:21;13.40;;;8.68;;
11328;SDS011;5719;42.714;23.732;2023-06-22T08:09:48;14.10;;;8.88;;
11328;SDS011;5719;42.714;23.732;2023-06-22T08:12:15;12.70;;;8.85;;
11328;SDS011;5719;42.714;23.732;2023-06-22T08:14:42;10.25;;;8.10;;
11328;SDS011;5719;42.714;23.732;2023-06-22T08:17:12;12.05;;;9.32;;
11328;SDS011;5719;42.714;23.732;2023-06-22T08:19:40;13.77;;;8.75;;
11328;SDS011;5719;42.714;23.732;2023-06-22T08:22:07;11.57;;;9.07;;
11328;SDS011;5719;42.714;23.732;2023-06-22T08:24:34;13.90;;;9.27;;
11328;SDS011;5719;42.714;23.732;2023-06-22T08:27:01;13.15;;;8.05;;
11328;SDS011;5719;42.714;23.732;2023-06-22T08:29:28;8.40;;;7.53;;
11328;SDS011;5719;42.714;23.732;2023-06-22T08:31:55;9.13;;;7.35;;
11328;SDS011;5719;42.714;23.732;2023-06-22T08:34:22;11.32;;;7.32;;
11328;SDS011;5719;42.714;23.732;2023-06-22T08:36:51;9.88;;;7.38;;
11328;SDS011;5719;42.714;23.732;2023-06-22T08:39:18;11.35;;;7.80;;
11328;SDS011;5719;42.714;23.732;2023-06-22T08:41:46;11.57;;;7.45;;
11328;SDS011;5719;42.714;23.732;2023-06-22T08:44:13;9.27;;;7.43;;
11328;SDS011;5719;42.714;23.732;2023-06-22T08:46:40;9.55;;;7.80;;
11328;SDS011;5719;42.714;23.732;2023-06-22T08:49:07;9.27;;;7.40;;
11328;SDS011;5719;42.714;23.732;2023-06-22T08:51:35;9.93;;;7.35;;
11328;SDS011;5719;42.714;23.732;2023-06-22T08:54:03;8.13;;;7.32;;
11328;SDS011;5719;42.714;23.732;2023-06-22T08:56:31;8.13;;;7.18;;
11328;SDS011;5719;42.714;23.732;2023-06-22T08:58:58;9.18;;;6.78;;
11328;SDS011;5719;42.714;23.732;2023-06-22T09:01:25;8.50;;;6.72;;
11328;SDS011;5719;42.714;23.732;2023-06-22T09:03:52;7.40;;;6.70;;
11328;SDS011;5719;42.714;23.732;2023-06-22T09:06:23;9.48;;;6.70;;
11328;SDS011;5719;42.714;23.732;2023-06-22T09:08:50;11.40;;;7.03;;
11328;SDS011;5719;42.714;23.732;2023-06-22T09:11:19;8.63;;;6.53;;
11328;SDS011;5719;42.714;23.732;2023-06-22T09:13:46;6.95;;;6.28;;
11328;SDS011;5719;42.714;23.732;2023-06-22T09:16:13;6.97;;;6.30;;
11328;SDS011;5719;42.714;23.732;2023-06-22T09:18:40;7.13;;;6.35;;
11328;SDS011;5719;42.714;23.732;2023-06-22T09:21:07;9.13;;;6.80;;
11328;SDS011;5719;42.714;23.732;2023-06-22T09:23:34;8.38;;;6.90;;
11328;SDS011;5719;42.714;23.732;2023-06-22T09:29:06;6.90;;;6.20;;
11328;SDS011;5719;42.714;23.732;2023-06-22T09:31:50;7.28;;;6.32;;
11328;SDS011;5719;42.714;23.732;2023-06-22T09:34:18;8.95;;;7.45;;
11328;SDS011;5719;42.714;23.732;2023-06-22T09:36:45;9.15;;;6.40;;
11328;SDS011;5719;42.714;23.732;2023-06-22T09:39:12;10.13;;;6.22;;
11328;SDS011;5719;42.714;23.732;2023-06-22T09:41:41;9.32;;;6.85;;
11328;SDS011;5719;42.714;23.732;2023-06-22T09:44:08;6.70;;;6.10;;
11328;SDS011;5719;42.714;23.732;2023-06-22T09:46:35;7.05;;;5.97;;
11328;SDS011;5719;42.714;23.732;2023-06-22T09:49:01;6.38;;;5.80;;
11328;SDS011;5719;42.714;23.732;2023-06-22T09:51:28;9.80;;;5.90;;
11328;SDS011;5719;42.714;23.732;2023-06-22T09:53:56;6.80;;;6.10;;
11328;SDS011;5719;42.714;23.732;2023-06-22T09:56:24;6.85;;;6.15;;
11328;SDS011;5719;42.714;23.732;2023-06-22T09:58:54;6.90;;;6.30;;
11328;SDS011;5719;42.714;23.732;2023-06-22T10:01:21;9.30;;;5.97;;
11328;SDS011;5719;42.714;23.732;2023-06-22T10:03:49;7.15;;;5.82;;
11328;SDS011;5719;42.714;23.732;2023-06-22T10:06:16;8.70;;;5.60;;
11328;SDS011;5719;42.714;23.732;2023-06-22T10:08:43;6.22;;;5.65;;
11328;SDS011;5719;42.714;23.732;2023-06-22T10:11:10;6.47;;;5.70;;
11328;SDS011;5719;42.714;23.732;2023-06-22T10:13:37;7.20;;;5.80;;
11328;SDS011;5719;42.714;23.732;2023-06-22T10:16:05;9.00;;;6.07;;
11328;SDS011;5719;42.714;23.732;2023-06-22T10:18:32;6.47;;;5.88;;
11328;SDS011;5719;42.714;23.732;2023-06-22T10:20:59;7.80;;;5.72;;
11328;SDS011;5719;42.714;23.732;2023-06-22T10:23:26;12.80;;;5.80;;
11328;SDS011;5719;42.714;23.732;2023-06-22T10:25:53;6.80;;;6.20;;
11328;SDS011;5719;42.714;23.732;2023-06-22T10:28:22;29.17;;;6.82;;
11328;SDS011;5719;42.714;23.732;2023-06-22T10:30:49;6.43;;;5.82;;
11328;SDS011;5719;42.714;23.732;2023-06-22T10:33:17;8.90;;;6.18;;
11328;SDS011;5719;42.714;23.732;2023-06-22T10:35:45;7.82;;;5.53;;
11328;SDS011;5719;42.714;23.732;2023-06-22T10:38:12;9.25;;;6.00;;
11328;SDS011;5719;42.714;23.732;2023-06-22T10:40:39;6.38;;;5.85;;
11328;SDS011;5719;42.714;23.732;2023-06-22T10:43:06;6.63;;;6.03;;
11328;SDS011;5719;42.714;23.732;2023-06-22T10:45:33;7.18;;;5.70;;
11328;SDS011;5719;42.714;23.732;2023-06-22T10:48:00;10.50;;;6.10;;
11328;SDS011;5719;42.714;23.732;2023-06-22T10:50:29;8.75;;;6.03;;
11328;SDS011;5719;42.714;23.732;2023-06-22T10:52:56;9.73;;;6.50;;
11328;SDS011;5719;42.714;23.732;2023-06-22T10:55:23;7.13;;;6.07;;
11328;SDS011;5719;42.714;23.732;2023-06-22T10:57:50;7.78;;;6.00;;
11328;SDS011;5719;42.714;23.732;2023-06-22T11:00:17;6.15;;;5.57;;
11328;SDS011;5719;42.714;23.732;2023-06-22T11:02:44;12.13;;;6.03;;
11328;SDS011;5719;42.714;23.732;2023-06-22T11:05:11;11.05;;;5.60;;
11328;SDS011;5719;42.714;23.732;2023-06-22T11:07:42;9.95;;;6.45;;
11328;SDS011;5719;42.714;23.732;2023-06-22T11:10:09;7.18;;;5.68;;
11328;SDS011;5719;42.714;23.732;2023-06-22T11:12:37;6.60;;;5.95;;
11328;SDS011;5719;42.714;23.732;2023-06-22T11:15:04;6.90;;;6.15;;
11328;SDS011;5719;42.714;23.732;2023-06-22T11:17:31;6.30;;;5.72;;
11328;SDS011;5719;42.714;23.732;2023-06-22T11:19:58;6.78;;;6.13;;
11328;SDS011;5719;42.714;23.732;2023-06-22T11:22:26;7.15;;;5.55;;
11328;SDS011;5719;42.714;23.732;2023-06-22T11:24:54;7.65;;;5.88;;
11328;SDS011;5719;42.714;23.732;2023-06-22T11:27:21;7.88;;;6.03;;
11328;SDS011;5719;42.714;23.732;2023-06-22T11:29:51;9.32;;;6.40;;
11328;SDS011;5719;42.714;23.732;2023-06-22T11:32:18;11.07;;;5.90;;
11328;SDS011;5719;42.714;23.732;2023-06-22T11:34:45;6.65;;;6.00;;
11328;SDS011;5719;42.714;23.732;2023-06-22T11:37:12;9.48;;;5.68;;
11328;SDS011;5719;42.714;23.732;2023-06-22T11:39:39;6.75;;;6.15;;
11328;SDS011;5719;42.714;23.732;2023-06-22T11:42:08;7.97;;;6.18;;
11328;SDS011;5719;42.714;23.732;2023-06-22T11:44:35;6.15;;;5.65;;
11328;SDS011;5719;42.714;23.732;2023-06-22T11:47:02;13.05;;;6.35;;
11328;SDS011;5719;42.714;23.732;2023-06-22T11:49:30;6.00;;;5.45;;
11328;SDS011;5719;42.714;23.732;2023-06-22T11:51:58;9.15;;;5.50;;
11328;SDS011;5719;42.714;23.732;2023-06-22T11:54:25;5.72;;;5.22;;
11328;SDS011;5719;42.714;23.732;2023-06-22T11:56:52;10.13;;;5.40;;
11328;SDS011;5719;42.714;23.732;2023-06-22T11:59:20;6.25;;;5.47;;
11328;SDS011;5719;42.714;23.732;2023-06-22T12:01:47;6.00;;;5.50;;
11328;SDS011;5719;42.714;23.732;2023-06-22T12:04:16;9.88;;;5.63;;
11328;SDS011;5719;42.714;23.732;2023-06-22T12:06:43;6.30;;;5.32;;
11328;SDS011;5719;42.714;23.732;2023-06-22T12:09:10;6.32;;;5.43;;
11328;SDS011;5719;42.714;23.732;2023-06-22T12:11:38;6.68;;;5.18;;
11328;SDS011;5719;42.714;23.732;2023-06-22T12:14:06;5.65;;;5.15;;
11328;SDS011;5719;42.714;23.732;2023-06-22T12:16:34;6.25;;;5.68;;
11328;SDS011;5719;42.714;23.732;2023-06-22T12:19:01;6.65;;;6.03;;
11328;SDS011;5719;42.714;23.732;2023-06-22T12:21:28;6.45;;;5.85;;
11328;SDS011;5719;42.714;23.732;2023-06-22T12:23:55;6.10;;;5.38;;
11328;SDS011;5719;42.714;23.732;2023-06-22T12:26:22;7.00;;;5.43;;
11328;SDS011;5719;42.714;23.732;2023-06-22T12:28:49;8.63;;;5.82;;
11328;SDS011;5719;42.714;23.732;2023-06-22T12:31:17;8.68;;;6.07;;
11328;SDS011;5719;42.714;23.732;2023-06-22T12:33:45;9.73;;;5.88;;
11328;SDS011;5719;42.714;23.732;2023-06-22T12:36:12;6.70;;;5.85;;
11328;SDS011;5719;42.714;23.732;2023-06-22T12:38:41;7.72;;;6.22;;
11328;SDS011;5719;42.714;23.732;2023-06-22T12:41:08;8.02;;;5.72;;
11328;SDS011;5719;42.714;23.732;2023-06-22T12:43:35;6.53;;;5.70;;
11328;SDS011;5719;42.714;23.732;2023-06-22T12:46:02;6.50;;;5.88;;
11328;SDS011;5719;42.714;23.732;2023-06-22T12:48:29;7.13;;;6.22;;
11328;SDS011;5719;42.714;23.732;2023-06-22T12:50:57;6.55;;;5.95;;
11328;SDS011;5719;42.714;23.732;2023-06-22T12:53:24;7.57;;;5.80;;
11328;SDS011;5719;42.714;23.732;2023-06-22T12:55:52;7.95;;;5.60;;
11328;SDS011;5719;42.714;23.732;2023-06-22T12:58:19;7.15;;;6.07;;
11328;SDS011;5719;42.714;23.732;2023-06-22T13:00:46;10.90;;;5.50;;
11328;SDS011;5719;42.714;23.732;2023-06-22T13:03:15;5.97;;;5.47;;
11328;SDS011;5719;42.714;23.732;2023-06-22T13:05:42;5.97;;;5.47;;
11328;SDS011;5719;42.714;23.732;2023-06-22T13:08:11;16.95;;;5.82;;
11328;SDS011;5719;42.714;23.732;2023-06-22T13:10:38;6.22;;;5.72;;
11328;SDS011;5719;42.714;23.732;2023-06-22T13:13:07;8.93;;;5.88;;
11328;SDS011;5719;42.714;23.732;2023-06-22T13:15:34;6.05;;;5.50;;
11328;SDS011;5719;42.714;23.732;2023-06-22T13:18:01;30.17;;;7.38;;
11328;SDS011;5719;42.714;23.732;2023-06-22T13:20:28;8.90;;;5.53;;
11328;SDS011;5719;42.714;23.732;2023-06-22T13:22:55;8.32;;;5.50;;
11328;SDS011;5719;42.714;23.732;2023-06-22T13:25:24;10.43;;;5.57;;
11328;SDS011;5719;42.714;23.732;2023-06-22T13:27:51;6.03;;;5.53;;
11328;SDS011;5719;42.714;23.732;2023-06-22T13:30:18;9.25;;;5.75;;
11328;SDS011;5719;42.714;23.732;2023-06-22T13:32:45;6.97;;;5.13;;
11328;SDS011;5719;42.714;23.732;2023-06-22T13:35:12;6.78;;;5.70;;
11328;SDS011;5719;42.714;23.732;2023-06-22T13:37:39;9.80;;;5.70;;
11328;SDS011;5719;42.714;23.732;2023-06-22T13:40:07;8.18;;;5.50;;
11328;SDS011;5719;42.714;23.732;2023-06-22T13:42:35;7.30;;;5.80;;
11328;SDS011;5719;42.714;23.732;2023-06-22T13:45:03;6.30;;;5.70;;
11328;SDS011;5719;42.714;23.732;2023-06-22T13:47:30;5.97;;;5.40;;
11328;SDS011;5719;42.714;23.732;2023-06-22T13:49:57;6.55;;;5.57;;
11328;SDS011;5719;42.714;23.732;2023-06-22T13:52:25;6.65;;;5.65;;
11328;SDS011;5719;42.714;23.732;2023-06-22T13:54:52;5.95;;;5.50;;
11328;SDS011;5719;42.714;23.732;2023-06-22T13:57:19;6.82;;;6.13;;
11328;SDS011;5719;42.714;23.732;2023-06-22T13:59:47;6.70;;;6.10;;
11328;SDS011;5719;42.714;23.732;2023-06-22T14:02:14;6.60;;;5.82;;
11328;SDS011;5719;42.714;23.732;2023-06-22T14:04:42;6.80;;;5.93;;
11328;SDS011;5719;42.714;23.732;2023-06-22T14:07:09;6.45;;;5.82;;
11328;SDS011;5719;42.714;23.732;2023-06-22T14:09:35;9.82;;;5.75;;
11328;SDS011;5719;42.714;23.732;2023-06-22T14:12:03;7.13;;;6.15;;
11328;SDS011;5719;42.714;23.732;2023-06-22T14:14:31;9.45;;;5.88;;
11328;SDS011;5719;42.714;23.732;2023-06-22T14:16:59;8.18;;;5.68;;
11328;SDS011;5719;42.714;23.732;2023-06-22T14:19:26;6.28;;;5.32;;
11328;SDS011;5719;42.714;23.732;2023-06-22T14:21:53;6.30;;;5.72;;
11328;SDS011;5719;42.714;23.732;2023-06-22T14:24:20;6.13;;;5.63;;
11328;SDS011;5719;42.714;23.732;2023-06-22T14:26:47;6.22;;;5.60;;
11328;SDS011;5719;42.714;23.732;2023-06-22T14:29:14;8.00;;;5.78;;
11328;SDS011;5719;42.714;23.732;2023-06-22T14:31:44;17.05;;;6.85;;
11328;SDS011;5719;42.714;23.732;2023-06-22T14:34:13;14.02;;;7.25;;
11328;SDS011;5719;42.714;23.732;2023-06-22T14:36:41;12.90;;;7.65;;
11328;SDS011;5719;42.714;23.732;2023-06-22T14:39:08;10.82;;;7.55;;
11328;SDS011;5719;42.714;23.732;2023-06-22T14:41:35;14.48;;;8.43;;
11328;SDS011;5719;42.714;23.732;2023-06-22T14:44:02;13.15;;;7.38;;